Time;durP1;ratioP1;P1;durP2;ratioP2;P2;SDS_P1;SDS_P2;PMS_P1;PMS_P2;Temp;Humidity;BMP_temperature;BMP_pressure;BME280_temperature;BME280_humidity;BME280_pressure;Samples;Min_cycle;Max_cycle;Signal;HPM_P1;HPM_P2
2023/07/15 00:00:21;;;;;;;9.45;4.82;;;;;;;24.16;55.95;99237.31;4375591;32;34133;-83
2023/07/15 00:02:51;;;;;;;8.23;4.93;;;;;;;24.16;56.05;99241.75;4389150;32;34491;-84
2023/07/15 00:05:25;;;;;;;7.30;4.72;;;;;;;24.04;56.31;99238.69;4389207;32;33885;-83
2023/07/15 00:07:53;;;;;;;8.60;5.10;;;;;;;24.04;56.45;99236.03;4389149;32;33955;-84
2023/07/15 00:10:21;;;;;;;9.00;4.82;;;;;;;24.07;56.43;99232.41;4375370;32;33559;-84
2023/07/15 00:12:49;;;;;;;10.25;5.50;;;;;;;24.06;56.46;99229.84;4375327;32;33414;-83
2023/07/15 00:15:17;;;;;;;9.00;4.95;;;;;;;23.97;56.60;99231.91;4388994;32;34516;-83
2023/07/15 00:17:45;;;;;;;10.05;4.75;;;;;;;23.90;56.86;99229.59;4388947;32;35058;-83
2023/07/15 00:20:15;;;;;;;9.15;4.97;;;;;;;24.06;56.70;99224.53;4389046;32;33845;-83
2023/07/15 00:22:44;;;;;;;12.02;5.75;;;;;;;23.95;56.93;99227.62;4391178;32;33023;-83
2023/07/15 00:25:15;;;;;;;9.15;4.57;;;;;;;23.95;56.96;99224.97;4391270;32;34771;-84
2023/07/15 00:27:43;;;;;;;11.63;5.20;;;;;;;23.86;57.35;99222.69;4377428;32;35081;-83
2023/07/15 00:30:16;;;;;;;12.37;5.55;;;;;;;23.90;57.23;99224.28;4391568;32;34083;-83
2023/07/15 00:32:46;;;;;;;9.07;5.25;;;;;;;23.70;57.96;99227.75;4377470;32;32955;-83
2023/07/15 00:35:22;;;;;;;11.27;5.72;;;;;;;23.71;57.73;99235.59;4390965;32;33758;-83
2023/07/15 00:37:50;;;;;;;9.45;5.28;;;;;;;23.78;57.48;99215.91;4365198;32;34063;-83
2023/07/15 00:40:17;;;;;;;10.02;6.05;;;;;;;23.75;57.44;99223.13;4377385;32;34920;-83
2023/07/15 00:43:22;;;;;;;9.60;5.10;;;;;;;23.78;57.68;99218.56;4391113;32;33938;-84
2023/07/15 00:46:19;;;;;;;6.57;4.75;;;;;;;23.73;58.06;99211.75;4390865;32;34545;-83
2023/07/15 00:49:03;;;;;;;9.10;5.60;;;;;;;23.68;58.23;99221.66;4390951;32;35289;-83
2023/07/15 00:51:40;;;;;;;11.07;5.57;;;;;;;23.65;58.29;99219.97;4377639;32;34354;-83
2023/07/15 00:54:09;;;;;;;8.50;5.60;;;;;;;23.63;58.27;99213.84;4389556;32;33348;-83
2023/07/15 00:56:38;;;;;;;11.07;6.03;;;;;;;23.59;58.28;99209.59;4377005;32;32771;-84
2023/07/15 00:59:06;;;;;;;8.98;5.72;;;;;;;23.49;58.59;99210.91;4377236;32;34034;-83
2023/07/15 01:01:34;;;;;;;15.50;5.82;;;;;;;23.55;58.31;99208.00;4377115;32;34541;-84
2023/07/15 01:04:05;;;;;;;9.60;5.20;;;;;;;23.49;58.46;99214.41;4389710;32;33701;-84
2023/07/15 01:06:35;;;;;;;7.72;4.95;;;;;;;23.49;58.67;99210.91;4377312;32;34329;-83
2023/07/15 01:09:09;;;;;;;8.85;4.82;;;;;;;23.48;58.42;99214.47;4391150;32;33716;-84
2023/07/15 01:11:37;;;;;;;9.82;5.20;;;;;;;23.46;58.54;99213.66;4390729;32;33991;-84
2023/07/15 01:14:05;;;;;;;7.87;5.43;;;;;;;23.35;58.86;99206.16;4390755;32;33547;-83
2023/07/15 01:16:33;;;;;;;8.57;5.62;;;;;;;;;;4377212;32;34639;-84
2023/07/15 01:19:00;;;;;;;8.68;5.25;;;;;;;23.29;58.84;99201.09;4391100;32;35427;-83
2023/07/15 01:21:30;;;;;;;9.32;5.35;;;;;;;23.33;58.59;99207.13;4377231;32;34557;-83
2023/07/15 01:23:57;;;;;;;8.43;5.12;;;;;;;23.30;58.91;99202.81;4377318;32;33968;-83
2023/07/15 01:26:24;;;;;;;8.77;5.43;;;;;;;23.22;59.02;99204.88;4390577;32;33808;-83
2023/07/15 01:28:52;;;;;;;9.13;5.65;;;;;;;23.24;58.88;99197.75;4390643;32;34990;-84
2023/07/15 01:31:20;;;;;;;8.73;5.50;;;;;;;23.19;58.79;99197.94;4390955;32;34065;-83
2023/07/15 01:33:48;;;;;;;8.57;5.35;;;;;;;23.19;59.00;99203.22;4364227;32;31865;-83
2023/07/15 01:36:16;;;;;;;8.38;5.50;;;;;;;22.99;59.73;99197.81;4377176;32;34612;-83
2023/07/15 01:38:43;;;;;;;8.98;5.40;;;;;;;22.98;59.87;99201.37;4390643;32;34653;-83
2023/07/15 01:41:11;;;;;;;9.00;5.37;;;;;;;23.04;59.63;99204.66;4390578;32;33971;-83
2023/07/15 01:43:38;;;;;;;7.95;5.05;;;;;;;23.05;59.65;99206.38;4390603;32;33344;-83
2023/07/15 01:46:06;;;;;;;8.20;4.95;;;;;;;23.04;59.73;99209.09;4390769;32;32849;-84
2023/07/15 01:48:35;;;;;;;8.93;5.60;;;;;;;23.05;59.75;99211.69;4377138;32;35098;-84
2023/07/15 01:51:03;;;;;;;9.48;6.00;;;;;;;23.08;59.39;99210.72;4376941;32;34248;-83
2023/07/15 01:53:31;;;;;;;8.68;5.25;;;;;;;23.10;59.42;99211.50;4390611;32;33551;-83
2023/07/15 01:55:58;;;;;;;10.27;5.05;;;;;;;23.12;59.24;99204.38;4390652;32;34055;-84
2023/07/15 01:58:26;;;;;;;7.85;5.03;;;;;;;23.22;58.98;99213.69;4389220;32;33941;-83
2023/07/15 02:00:54;;;;;;;9.38;5.47;;;;;;;23.17;59.04;99212.12;4390462;32;35109;-83
2023/07/15 02:03:22;;;;;;;8.30;5.20;;;;;;;23.24;58.75;99211.84;4391074;32;33939;-83
2023/07/15 02:05:51;;;;;;;7.35;4.82;;;;;;;23.24;58.62;99217.13;4390606;32;33580;-84
2023/07/15 02:08:22;;;;;;;8.48;5.03;;;;;;;23.14;58.96;99218.41;4364821;32;35097;-84
2023/07/15 02:10:50;;;;;;;7.55;5.05;;;;;;;23.21;58.58;99211.97;4390499;32;34288;-84
2023/07/15 02:13:18;;;;;;;10.25;5.18;;;;;;;23.12;58.81;99209.66;4390385;32;33432;-84
2023/07/15 02:15:46;;;;;;;8.40;4.90;;;;;;;23.03;59.02;99210.00;4390400;32;34724;-83
2023/07/15 02:18:15;;;;;;;9.85;5.78;;;;;;;22.87;59.76;99212.31;4390259;32;34293;-83
2023/07/15 02:20:44;;;;;;;8.50;5.82;;;;;;;22.87;60.09;99214.97;4390544;32;34214;-85
2023/07/15 02:23:12;;;;;;;8.25;5.45;;;;;;;22.70;60.45;99218.22;4390282;32;33569;-84
2023/07/15 02:25:40;;;;;;;8.70;5.80;;;;;;;22.75;60.87;99218.06;4390149;32;34027;-83
2023/07/15 02:28:08;;;;;;;8.48;5.80;;;;;;;22.81;60.69;99217.84;4390447;32;34166;-84
2023/07/15 02:30:35;;;;;;;8.65;5.57;;;;;;;22.80;60.78;99214.31;4376642;32;33450;-84
2023/07/15 02:33:06;;;;;;;8.10;5.85;;;;;;;22.75;60.96;99220.69;4388854;32;33613;-84
2023/07/15 02:35:34;;;;;;;8.50;5.60;;;;;;;22.89;60.75;99214.94;4377036;32;33262;-83
2023/07/15 02:38:02;;;;;;;8.05;5.65;;;;;;;22.80;60.99;99214.31;4376676;32;33779;-83
2023/07/15 02:40:31;;;;;;;8.93;5.40;;;;;;;22.85;61.04;99222.09;4388972;32;33818;-83
2023/07/15 02:42:59;;;;;;;8.98;6.12;;;;;;;22.75;61.79;99218.06;4376632;32;33734;-83
2023/07/15 02:45:27;;;;;;;9.07;5.95;;;;;;;22.90;61.17;99219.28;4389109;32;33855;-84
2023/07/15 02:47:54;;;;;;;10.23;6.32;;;;;;;22.91;61.17;99218.34;4388819;32;34922;-83
2023/07/15 02:50:22;;;;;;;8.88;5.80;;;;;;;22.88;61.44;99218.47;4364026;32;34236;-83
2023/07/15 02:52:50;;;;;;;8.07;6.03;;;;;;;22.89;61.06;99228.16;4390026;32;33112;-83
2023/07/15 02:55:17;;;;;;;12.73;6.60;;;;;;;22.94;61.03;99226.22;4389969;32;34649;-83
2023/07/15 02:57:45;;;;;;;8.38;5.53;;;;;;;22.90;60.96;99228.06;4390044;32;35044;-83
2023/07/15 03:00:15;;;;;;;7.35;5.32;;;;;;;22.87;60.80;99219.38;4390310;32;34901;-84
2023/07/15 03:02:49;;;;;;;8.82;5.57;;;;;;;22.84;60.59;99225.66;4375865;32;32865;-83
2023/07/15 03:05:17;;;;;;;9.07;5.50;;;;;;;22.91;60.44;99221.00;4390073;32;33903;-84
2023/07/15 03:07:47;;;;;;;9.68;5.55;;;;;;;23.09;59.42;99215.06;4389834;32;33820;-83
2023/07/15 03:10:15;;;;;;;8.90;5.50;;;;;;;22.93;59.96;99220.06;4388804;32;33689;-83
2023/07/15 03:12:43;;;;;;;10.25;5.20;;;;;;;23.04;59.66;99219.69;4376262;32;34427;-87
2023/07/15 03:15:10;;;;;;;8.30;5.60;;;;;;;23.06;59.46;99228.41;4389756;32;33842;-83
2023/07/15 03:17:38;;;;;;;7.75;5.53;;;;;;;22.83;59.95;99226.56;4389730;32;34124;-83
2023/07/15 03:20:14;;;;;;;7.57;5.28;;;;;;;22.84;59.82;99225.66;4389878;32;34632;-83
2023/07/15 03:22:42;;;;;;;8.40;5.20;;;;;;;22.94;59.34;99227.06;4376411;32;33380;-84
2023/07/15 03:25:10;;;;;;;7.15;4.93;;;;;;;23.04;58.94;99223.19;4389778;32;34254;-83
2023/07/15 03:27:38;;;;;;;9.43;5.12;;;;;;;23.08;58.68;99223.94;4389863;32;33850;-83
2023/07/15 03:30:07;;;;;;;6.68;4.60;;;;;;;23.11;58.62;99223.81;4375871;32;34587;-83
2023/07/15 03:32:39;;;;;;;10.45;4.82;;;;;;;23.14;58.25;99221.03;4388464;32;34029;-83
2023/07/15 03:35:08;;;;;;;7.15;4.87;;;;;;;23.12;58.19;99214.09;4375913;32;33574;-84
2023/07/15 03:37:38;;;;;;;9.10;4.97;;;;;;;23.11;58.46;99210.59;4388205;32;34988;-83
2023/07/15 03:40:08;;;;;;;9.25;5.07;;;;;;;23.12;58.19;99212.31;4388370;32;34811;-83
2023/07/15 03:42:35;;;;;;;7.97;4.90;;;;;;;23.15;58.10;99219.28;4389384;32;33647;-83
2023/07/15 03:45:04;;;;;;;8.70;4.90;;;;;;;23.16;58.32;99213.94;4389507;32;33644;-83
2023/07/15 03:47:34;;;;;;;6.90;4.47;;;;;;;23.15;58.34;99219.28;4389546;32;33736;-84
2023/07/15 03:50:06;;;;;;;7.85;4.62;;;;;;;23.09;58.63;99217.72;4389205;32;34843;-83
2023/07/15 03:52:34;;;;;;;8.48;4.95;;;;;;;23.20;58.31;99223.47;4389575;32;34138;-83
2023/07/15 03:55:03;;;;;;;9.18;5.10;;;;;;;23.25;57.96;99232.06;4375838;32;34056;-83
2023/07/15 03:57:30;;;;;;;9.23;5.00;;;;;;;23.17;58.36;99220.94;4391439;32;34937;-83
2023/07/15 03:59:58;;;;;;;7.50;4.62;;;;;;;23.08;58.11;99223.94;4391392;32;34829;-83
2023/07/15 04:02:27;;;;;;;7.95;4.60;;;;;;;23.38;56.77;99224.56;4391072;32;33768;-84
2023/07/15 04:04:55;;;;;;;10.60;5.07;;;;;;;23.36;56.58;99222.87;4377605;32;33869;-83
2023/07/15 04:07:23;;;;;;;11.93;5.10;;;;;;;22.88;56.84;99223.75;4391570;32;34251;-84
2023/07/15 04:09:51;;;;;;;7.68;5.30;;;;;;;23.47;56.07;99220.69;4377523;32;33824;-84
2023/07/15 04:12:18;;;;;;;8.30;5.07;;;;;;;23.25;56.55;99210.91;4391469;32;33653;-84
2023/07/15 04:14:46;;;;;;;9.02;4.90;;;;;;;23.37;56.56;99214.88;4377438;32;32504;-84
2023/07/15 04:17:13;;;;;;;9.43;5.15;;;;;;;23.77;55.29;99214.19;4391107;32;33892;-84
2023/07/15 04:19:41;;;;;;;8.57;5.72;;;;;;;24.11;54.64;99207.53;4391245;32;34798;-83
2023/07/15 04:22:09;;;;;;;13.60;6.03;;;;;;;23.76;55.78;99204.53;4391459;32;33791;-88
2023/07/15 04:24:36;;;;;;;8.90;5.35;;;;;;;24.33;54.60;99196.88;4391341;32;33836;-84
2023/07/15 04:27:04;;;;;;;7.47;5.40;;;;;;;24.16;55.17;99189.62;4391183;32;33822;-84
2023/07/15 04:29:32;;;;;;;10.00;5.50;;;;;;;24.50;54.08;99194.38;4391270;32;34233;-84
2023/07/15 04:32:00;;;;;;;8.02;4.93;;;;;;;24.67;53.16;99198.97;4377165;32;33941;-84
2023/07/15 04:34:27;;;;;;;8.07;5.40;;;;;;;24.69;53.81;99202.38;4391034;32;33879;-84
2023/07/15 04:36:55;;;;;;;8.15;4.50;;;;;;;25.35;52.18;99211.81;4390971;32;35179;-84
2023/07/15 04:39:25;;;;;;;13.20;5.22;;;;;;;25.47;50.88;99211.25;4390880;32;34736;-83
2023/07/15 04:41:53;;;;;;;8.20;4.75;;;;;;;25.56;51.17;99208.13;4389837;32;34165;-83
2023/07/15 04:44:20;;;;;;;5.55;3.97;;;;;;;25.88;48.99;99211.94;4377395;32;34751;-83
2023/07/15 04:46:48;;;;;;;7.00;4.15;;;;;;;25.71;49.56;99214.50;4390957;32;34062;-83
2023/07/15 04:49:17;;;;;;;6.32;4.00;;;;;;;25.80;49.37;99229.16;4390966;32;34015;-83
2023/07/15 04:51:45;;;;;;;6.20;4.00;;;;;;;26.26;48.07;99210.97;4377393;32;33394;-83
2023/07/15 04:54:12;;;;;;;7.35;4.00;;;;;;;26.33;48.37;99215.87;4390819;32;33964;-83
2023/07/15 04:56:40;;;;;;;9.90;4.87;;;;;;;26.43;48.13;99210.94;4377337;32;34219;-83
2023/07/15 04:59:08;;;;;;;7.15;4.00;;;;;;;26.24;47.85;99208.34;4390894;32;35136;-83
2023/07/15 05:01:35;;;;;;;7.28;4.25;;;;;;;26.80;47.20;99217.88;4376856;32;34367;-83
2023/07/15 05:04:03;;;;;;;6.93;3.80;;;;;;;26.76;47.03;99220.78;4390891;32;34221;-83
2023/07/15 05:06:31;;;;;;;8.23;4.45;;;;;;;27.05;45.86;99225.44;4390916;32;34903;-83
2023/07/15 05:08:59;;;;;;;9.93;4.03;;;;;;;26.67;46.61;99227.47;4376502;32;34180;-83
2023/07/15 05:11:27;;;;;;;10.02;4.65;;;;;;;26.89;46.38;99235.16;4390949;32;34565;-82
2023/07/15 05:13:54;;;;;;;8.93;3.80;;;;;;;27.12;45.99;99233.94;4389608;32;35228;-83
2023/07/15 05:16:22;;;;;;;7.70;4.30;;;;;;;27.02;46.67;99235.38;4376978;32;34683;-83
2023/07/15 05:18:49;;;;;;;7.22;4.18;;;;;;;27.37;45.80;99228.16;4377184;32;34061;-87
2023/07/15 05:21:17;;;;;;;8.27;4.12;;;;;;;27.77;44.59;99226.84;4377288;32;33822;-83
2023/07/15 05:23:44;;;;;;;9.00;4.30;;;;;;;28.16;43.86;99224.63;4390678;32;34319;-84
2023/07/15 05:26:12;;;;;;;10.52;4.37;;;;;;;28.12;44.53;99227.44;4390822;32;34265;-83
2023/07/15 05:28:39;;;;;;;7.57;3.62;;;;;;;27.80;44.33;99244.44;4390755;32;33864;-83
2023/07/15 05:31:07;;;;;;;6.78;4.30;;;;;;;27.82;44.12;99238.06;4376685;32;33800;-84
2023/07/15 05:33:35;;;;;;;8.50;3.75;;;;;;;28.18;43.90;99233.38;4389248;32;33693;-84
2023/07/15 05:36:02;;;;;;;9.07;4.10;;;;;;;28.18;43.91;99238.69;4364861;32;33104;-83
2023/07/15 05:38:30;;;;;;;6.65;4.18;;;;;;;28.42;43.14;99241.78;4377230;32;34838;-84
2023/07/15 05:40:57;;;;;;;6.72;3.78;;;;;;;28.93;42.90;99243.09;4390738;32;33541;-83
2023/07/15 05:43:25;;;;;;;6.68;3.87;;;;;;;27.80;43.59;99255.94;4376965;32;33490;-83
2023/07/15 05:45:52;;;;;;;6.93;4.25;;;;;;;28.08;43.35;99260.56;4390392;32;33764;-83
2023/07/15 05:48:20;;;;;;;6.65;4.10;;;;;;;28.09;43.54;99253.44;4390647;32;33983;-83
2023/07/15 05:50:47;;;;;;;6.53;4.10;;;;;;;27.53;44.81;99263.63;4390651;32;33638;-83
2023/07/15 05:53:15;;;;;;;8.02;4.10;;;;;;;28.01;43.71;99256.53;4376597;32;33900;-83
2023/07/15 05:55:43;;;;;;;8.88;4.35;;;;;;;28.31;43.19;99255.72;4376981;32;34131;-84
2023/07/15 05:58:10;;;;;;;6.47;4.45;;;;;;;27.92;44.50;99265.06;4390696;32;33756;-83
2023/07/15 06:00:40;;;;;;;8.07;4.37;;;;;;;27.48;45.44;99265.72;4390535;32;33467;-86
2023/07/15 06:03:09;;;;;;;9.65;4.45;;;;;;;28.17;44.42;99263.66;4390534;32;33952;-83
2023/07/15 06:05:37;;;;;;;11.90;4.65;;;;;;;28.01;45.17;99256.53;4390545;32;34666;-82
2023/07/15 06:08:04;;;;;;;7.15;4.25;;;;;;;28.66;42.67;99253.63;4377130;32;33551;-84
2023/07/15 06:10:32;;;;;;;10.32;4.30;;;;;;;28.83;43.67;99257.97;4390586;32;33349;-83
2023/07/15 06:13:00;;;;;;;9.98;3.80;;;;;;;28.21;43.32;99254.53;4390866;32;34009;-82
2023/07/15 06:15:27;;;;;;;6.03;3.85;;;;;;;28.33;44.67;99259.97;4390291;32;35167;-84
2023/07/15 06:17:57;;;;;;;6.43;4.10;;;;;;;28.65;43.47;99256.41;4390501;32;34619;-83
2023/07/15 06:20:24;;;;;;;11.30;3.95;;;;;;;28.55;43.34;99253.41;4390521;32;33499;-84
2023/07/15 06:22:52;;;;;;;12.30;4.70;;;;;;;29.00;43.14;99259.63;4390351;32;33947;-84
2023/07/15 06:25:20;;;;;;;7.53;4.40;;;;;;;28.96;43.37;99253.56;4376825;32;33958;-84
2023/07/15 06:27:47;;;;;;;8.10;3.62;;;;;;;29.47;42.70;99262.00;4390228;32;34766;-84
2023/07/15 06:30:15;;;;;;;6.55;4.20;;;;;;;29.43;41.59;99262.28;4390269;32;33790;-84
2023/07/15 06:32:42;;;;;;;12.73;3.87;;;;;;;29.28;42.47;99261.41;4390393;32;34678;-83
2023/07/15 06:35:10;;;;;;;10.73;4.28;;;;;;;29.20;42.22;99261.91;4390011;32;34296;-85
2023/07/15 06:37:37;;;;;;;10.10;3.60;;;;;;;29.54;41.36;99271.31;4390308;32;34838;-84
2023/07/15 06:40:05;;;;;;;6.97;3.72;;;;;;;29.88;40.78;99269.19;4390425;32;34091;-84
2023/07/15 06:42:33;;;;;;;7.62;3.75;;;;;;;30.06;41.12;99259.97;4390236;32;33484;-83
2023/07/15 06:45:00;;;;;;;7.30;3.25;;;;;;;30.30;39.67;99260.16;4390240;32;33244;-87
2023/07/15 06:47:28;;;;;;;7.10;3.60;;;;;;;30.75;40.03;99255.34;4390288;32;33935;-83
2023/07/15 06:49:56;;;;;;;8.25;3.78;;;;;;;29.73;41.80;99264.81;4390211;32;34370;-84
2023/07/15 06:52:23;;;;;;;6.93;3.62;;;;;;;30.45;40.45;99266.31;4390228;32;33959;-84
2023/07/15 06:54:54;;;;;;;7.20;3.40;;;;;;;30.84;39.67;99263.72;4390146;32;35089;-82
2023/07/15 06:57:21;;;;;;;8.73;3.65;;;;;;;30.46;40.08;99270.72;4390154;32;34790;-83
2023/07/15 06:59:49;;;;;;;6.47;3.55;;;;;;;29.81;41.39;99278.53;4390196;32;33461;-86
2023/07/15 07:02:17;;;;;;;8.13;3.92;;;;;;;29.70;42.33;99270.37;4388844;32;33865;-82
2023/07/15 07:04:45;;;;;;;7.70;3.67;;;;;;;30.12;41.10;99263.16;4389838;32;34894;-83
2023/07/15 07:07:13;;;;;;;8.52;3.35;;;;;;;30.18;40.48;99273.50;4390056;32;33828;-82
2023/07/15 07:09:40;;;;;;;7.22;3.53;;;;;;;30.03;40.76;99275.34;4390081;32;33113;-82
2023/07/15 07:12:08;;;;;;;8.07;3.33;;;;;;;30.21;41.83;99274.16;4389807;32;33183;-83
2023/07/15 07:14:35;;;;;;;13.40;4.68;;;;;;;30.60;40.34;99259.06;4389743;32;34123;-83
2023/07/15 07:17:03;;;;;;;8.93;3.90;;;;;;;30.65;41.16;99259.63;4389730;32;34552;-80
2023/07/15 07:19:31;;;;;;;6.90;4.07;;;;;;;30.78;41.13;99265.84;4389674;32;34146;-82
2023/07/15 07:21:58;;;;;;;6.50;3.60;;;;;;;30.46;41.06;99272.53;4389848;32;34875;-90
2023/07/15 07:24:26;;;;;;;8.73;3.22;;;;;;;29.84;41.92;99278.34;4389837;32;34451;-84
2023/07/15 07:26:53;;;;;;;7.00;3.75;;;;;;;30.10;41.03;99270.47;4389582;32;34294;-81
2023/07/15 07:29:22;;;;;;;7.75;3.35;;;;;;;29.72;41.91;99272.00;4389819;32;33453;-82
2023/07/15 07:31:52;;;;;;;7.50;3.40;;;;;;;30.35;40.58;99275.94;4389574;32;34621;-83
2023/07/15 07:34:19;;;;;;;5.57;3.28;;;;;;;30.24;41.07;99273.12;4378079;32;34857;-80
2023/07/15 07:36:46;;;;;;;7.70;3.33;;;;;;;30.16;41.73;99270.94;4377940;32;35023;-82
2023/07/15 07:39:14;;;;;;;10.48;3.60;;;;;;;29.95;42.34;99275.84;4391664;32;34329;-81
2023/07/15 07:41:42;;;;;;;9.75;3.65;;;;;;;30.08;43.46;99283.94;4391541;32;33286;-81
2023/07/15 07:44:09;;;;;;;9.18;4.05;;;;;;;29.64;42.52;99278.78;4391359;32;35151;-84
2023/07/15 07:46:37;;;;;;;6.87;4.05;;;;;;;30.04;42.62;99291.31;4391689;32;33904;-83
2023/07/15 07:49:04;;;;;;;7.95;3.67;;;;;;;29.66;43.03;99282.22;4391554;32;33337;-84
2023/07/15 07:51:32;;;;;;;12.27;4.30;;;;;;;30.00;43.03;99272.88;4391603;32;33823;-82
2023/07/15 07:53:59;;;;;;;6.05;3.70;;;;;;;30.29;42.12;99279.00;4391349;32;34031;-83
2023/07/15 07:56:27;;;;;;;6.80;3.33;;;;;;;30.47;42.23;99275.09;4377539;32;33364;-82
2023/07/15 07:58:57;;;;;;;8.57;3.80;;;;;;;30.91;42.34;99263.22;4391321;32;33343;-82
2023/07/15 08:01:25;;;;;;;9.38;3.58;;;;;;;30.50;41.16;99266.88;4365497;32;33099;-85
2023/07/15 08:03:54;;;;;;;7.85;3.55;;;;;;;30.75;41.34;99265.22;4377952;32;33847;-82
2023/07/15 08:06:23;;;;;;;9.65;4.37;;;;;;;30.71;41.23;99266.34;4377755;32;34025;-82
2023/07/15 08:08:51;;;;;;;7.72;4.10;;;;;;;29.92;42.36;99262.66;4377537;32;33249;-87
2023/07/15 08:11:18;;;;;;;8.00;3.65;;;;;;;30.26;42.27;99271.16;4377436;32;33878;-82
2023/07/15 08:13:46;;;;;;;5.85;3.60;;;;;;;30.63;41.66;99263.34;4391491;32;34024;-82
2023/07/15 08:16:38;;;;;;;8.68;3.55;;;;;;;30.70;41.14;99262.81;4391174;32;34964;-82
2023/07/15 08:19:06;;;;;;;6.10;3.90;;;;;;;30.42;41.68;99262.97;4377702;32;33338;-83
2023/07/15 08:21:34;;;;;;;7.97;3.95;;;;;;;30.38;42.73;99267.66;4391217;32;33961;-81
2023/07/15 08:24:02;;;;;;;6.57;4.12;;;;;;;30.38;42.66;99267.66;4391328;32;33968;-83
2023/07/15 08:26:30;;;;;;;6.30;3.53;;;;;;;30.84;41.51;99266.38;4377552;32;34647;-83
2023/07/15 08:29:00;;;;;;;8.60;4.20;;;;;;;30.68;42.98;99277.25;4389960;32;34132;-84
2023/07/15 08:31:28;;;;;;;7.90;4.07;;;;;;;30.06;43.40;99277.81;4389951;32;34331;-83
2023/07/15 08:33:56;;;;;;;6.87;3.78;;;;;;;30.67;42.03;99270.19;4391316;32;34183;-84
2023/07/15 08:36:23;;;;;;;8.45;4.20;;;;;;;31.01;42.31;99272.28;4391194;32;33736;-82
2023/07/15 08:38:50;;;;;;;5.62;3.97;;;;;;;31.17;41.75;99268.53;4391215;32;32633;-82
2023/07/15 08:41:18;;;;;;;9.48;3.92;;;;;;;31.24;41.93;99273.34;4391255;32;33649;-83
2023/07/15 08:43:46;;;;;;;8.30;3.83;;;;;;;31.23;41.51;99270.78;4376859;32;34607;-81
2023/07/15 08:46:26;;;;;;;7.50;4.15;;;;;;;31.24;41.13;99276.03;4389934;32;33761;-83
2023/07/15 08:48:55;;;;;;;6.03;4.15;;;;;;;31.06;41.14;99271.09;4389656;32;33804;-82
2023/07/15 08:51:26;;;;;;;8.05;3.72;;;;;;;31.31;41.54;99279.16;4391152;32;34430;-82
2023/07/15 08:53:53;;;;;;;7.53;4.43;;;;;;;30.92;42.27;99277.44;4377425;32;34204;-81
2023/07/15 08:56:23;;;;;;;7.30;4.03;;;;;;;31.01;41.37;99269.59;4390659;32;34762;-87
2023/07/15 08:58:51;;;;;;;10.60;4.18;;;;;;;31.32;41.83;99275.50;4377500;32;34417;-82
2023/07/15 09:01:19;;;;;;;6.85;3.65;;;;;;;31.01;41.40;99274.12;4389367;32;33988;-83
2023/07/15 09:03:47;;;;;;;6.40;4.30;;;;;;;31.19;41.75;99270.16;4390837;32;33974;-81
2023/07/15 09:06:17;;;;;;;7.80;3.83;;;;;;;31.36;40.54;99276.16;4390935;32;33632;-84
2023/07/15 09:08:51;;;;;;;7.53;4.00;;;;;;;31.28;41.09;99282.03;4377215;32;33347;-82
2023/07/15 09:11:18;;;;;;;7.80;4.40;;;;;;;31.17;41.25;99284.59;4364835;32;32842;-82
2023/07/15 09:13:46;;;;;;;8.70;5.00;;;;;;;30.85;42.12;99277.00;4390938;32;34048;-82
2023/07/15 09:16:14;;;;;;;11.27;4.32;;;;;;;30.99;41.87;99276.91;4390900;32;34330;-82
2023/07/15 09:18:43;;;;;;;7.07;3.70;;;;;;;30.96;42.12;99273.59;4390875;32;33063;-82
2023/07/15 09:21:15;;;;;;;5.75;3.25;;;;;;;31.04;42.11;99275.72;4390940;32;33830;-82
2023/07/15 09:23:44;;;;;;;6.97;3.35;;;;;;;31.34;40.73;99276.28;4390511;32;33892;-81
2023/07/15 09:26:13;;;;;;;7.57;4.05;;;;;;;31.52;41.38;99282.16;4390731;32;34163;-81
2023/07/15 09:28:43;;;;;;;6.90;3.62;;;;;;;31.34;40.31;99283.47;4390787;32;33249;-84
2023/07/15 09:31:10;;;;;;;7.53;3.35;;;;;;;31.22;41.01;99286.00;4389479;32;33555;-84
2023/07/15 09:33:39;;;;;;;6.45;3.60;;;;;;;31.24;42.52;99286.72;4390676;32;34117;-82
2023/07/15 09:36:07;;;;;;;5.37;3.50;;;;;;;31.09;41.91;99278.94;4390436;32;34059;-83
2023/07/15 09:38:37;;;;;;;6.47;3.10;;;;;;;31.32;42.21;99286.22;4376864;32;33452;-83
2023/07/15 09:41:08;;;;;;;5.82;3.78;;;;;;;31.52;39.92;99284.81;4389389;32;33671;-81
2023/07/15 09:43:45;;;;;;;6.18;3.40;;;;;;;31.78;40.94;99287.41;4390719;32;34579;-85
2023/07/15 09:46:18;;;;;;;7.25;3.42;;;;;;;31.62;40.40;99279.63;4352328;32;33859;-84
2023/07/15 09:48:46;;;;;;;6.53;3.25;;;;;;;31.39;40.01;99276.78;4390509;32;33699;-81
2023/07/15 09:51:15;;;;;;;7.55;3.05;;;;;;;31.27;40.87;99283.00;4376860;32;34007;-83
2023/07/15 09:53:55;;;;;;;5.55;3.42;;;;;;;31.23;41.01;99282.34;4388830;32;35022;-84
2023/07/15 09:56:35;;;;;;;6.93;3.30;;;;;;;31.53;41.11;99280.31;4376777;32;33885;-83
2023/07/15 09:59:08;;;;;;;6.62;3.47;;;;;;;31.19;40.86;99277.31;4364571;32;33056;-83
2023/07/15 10:01:41;;;;;;;7.12;3.65;;;;;;;31.22;41.34;99275.28;4376665;32;33456;-80
2023/07/15 10:04:35;;;;;;;6.80;3.62;;;;;;;31.24;41.06;99272.50;4377068;32;35152;-84
2023/07/15 10:07:03;;;;;;;6.35;3.05;;;;;;;31.35;40.57;99274.44;4390475;32;34492;-82
2023/07/15 10:09:31;;;;;;;5.22;2.90;;;;;;;31.48;40.90;99268.09;4377130;32;33891;-82
2023/07/15 10:11:59;;;;;;;5.37;2.60;;;;;;;31.81;40.30;99269.28;4390591;32;33814;-83
2023/07/15 10:14:30;;;;;;;5.80;2.80;;;;;;;32.30;39.25;99252.25;4389421;32;33819;-81
2023/07/15 10:17:09;;;;;;;5.85;2.58;;;;;;;32.00;38.22;99267.97;4377131;32;34199;-81
2023/07/15 10:19:44;;;;;;;7.50;3.30;;;;;;;32.31;38.77;99263.84;4390487;32;33464;-82
2023/07/15 10:22:12;;;;;;;5.05;2.97;;;;;;;32.12;39.05;99256.31;4390291;32;33941;-84
2023/07/15 10:24:44;;;;;;;8.65;3.42;;;;;;;32.22;40.02;99260.03;4376625;32;33946;-83
2023/07/15 10:27:11;;;;;;;5.78;3.12;;;;;;;32.19;38.46;99262.94;4376688;32;33395;-86
2023/07/15 10:29:40;;;;;;;5.25;2.90;;;;;;;32.07;40.23;99270.06;4390629;32;33311;-86
2023/07/15 10:32:15;;;;;;;5.50;2.50;;;;;;;32.18;38.86;99253.19;4376541;32;34667;-82
2023/07/15 10:34:49;;;;;;;5.87;2.65;;;;;;;32.34;38.87;99259.09;4376592;32;32579;-83
2023/07/15 10:37:18;;;;;;;5.03;2.80;;;;;;;32.29;38.62;99252.38;4388684;32;34080;-82
2023/07/15 10:39:46;;;;;;;4.75;2.58;;;;;;;32.06;38.96;99264.84;4390369;32;32807;-83
2023/07/15 10:42:17;;;;;;;6.50;2.70;;;;;;;32.26;38.55;99250.78;4390373;32;34685;-83
2023/07/15 10:44:52;;;;;;;4.75;2.70;;;;;;;32.20;38.88;99261.97;4390207;32;34184;-87
2023/07/15 10:47:20;;;;;;;6.70;3.08;;;;;;;32.36;38.26;99257.16;4376948;32;34018;-82
2023/07/15 10:49:48;;;;;;;5.10;3.10;;;;;;;32.60;37.64;99253.59;4376697;32;33296;-84
2023/07/15 10:52:22;;;;;;;7.28;3.20;;;;;;;32.14;38.49;99254.37;4371650;32;175112;-83
2023/07/15 10:54:54;;;;;;;5.80;2.97;;;;;;;32.51;38.79;99248.97;4376570;32;34290;-83
2023/07/15 10:57:26;;;;;;;5.15;3.05;;;;;;;32.67;36.88;99249.47;4388797;32;34704;-83
2023/07/15 11:00:09;;;;;;;5.72;3.22;;;;;;;32.24;37.80;99250.06;4388994;32;33557;-83
2023/07/15 11:02:37;;;;;;;6.65;2.60;;;;;;;32.51;37.34;99246.28;4388736;32;34017;-83
2023/07/15 11:05:07;;;;;;;7.10;3.05;;;;;;;32.53;38.24;99252.38;4375694;32;34120;-86
2023/07/15 11:07:35;;;;;;;4.95;3.10;;;;;;;32.96;38.19;99246.37;4376339;32;34493;-83
2023/07/15 11:10:03;;;;;;;6.87;3.37;;;;;;;32.93;36.59;99240.28;4389958;32;33426;-83
2023/07/15 11:12:31;;;;;;;7.53;2.78;;;;;;;32.62;38.54;99249.84;4376460;32;34072;-83
2023/07/15 11:14:59;;;;;;;6.80;3.15;;;;;;;32.99;37.63;99233.56;4376492;32;34151;-82
2023/07/15 11:17:27;;;;;;;7.00;2.50;;;;;;;32.40;37.37;99223.78;4376147;32;33558;-82
2023/07/15 11:19:54;;;;;;;8.77;2.92;;;;;;;32.67;37.69;99230.69;4389741;32;34369;-83
2023/07/15 11:22:22;;;;;;;6.95;3.00;;;;;;;32.40;38.35;99234.53;4390213;32;33994;-82
2023/07/15 11:24:50;;;;;;;10.68;3.10;;;;;;;32.53;38.03;99228.22;4389830;32;34786;-86
2023/07/15 11:27:17;;;;;;;6.68;3.00;;;;;;;32.77;37.84;99222.75;4389778;32;34661;-82
2023/07/15 11:29:45;;;;;;;5.32;3.15;;;;;;;32.79;37.86;99226.19;4388549;32;34421;-83
2023/07/15 11:32:15;;;;;;;6.75;3.37;;;;;;;32.66;37.10;99226.31;4389778;32;33730;-83
2023/07/15 11:34:42;;;;;;;5.90;2.83;;;;;;;32.80;36.51;99217.16;4389810;32;35024;-84
2023/07/15 11:37:09;;;;;;;4.97;3.17;;;;;;;32.80;37.21;99218.00;4389518;32;35025;-83
2023/07/15 11:39:41;;;;;;;10.57;3.10;;;;;;;32.68;36.80;99216.28;4389738;32;33283;-88